TimeEDT,TemperatureF,Dew PointF,Humidity,Sea Level PressureIn,VisibilityMPH,Wind Direction,Wind SpeedMPH,Gust SpeedMPH,PrecipitationIn,Events,Conditions,WindDirDegrees,DateUTC
12:15 AM,59.0,59.0,100,30.05,4.0,Calm,Calm,-,N/A,,Clear,0,2012-10-06 04:15:00
12:35 AM,59.0,59.0,100,30.04,4.0,Calm,Calm,-,N/A,,Clear,0,2012-10-06 04:35:00
12:55 AM,59.0,59.0,100,30.05,5.0,Calm,Calm,-,N/A,,Clear,0,2012-10-06 04:55:00
1:15 AM,59.0,59.0,100,30.04,4.0,Calm,Calm,-,N/A,,Clear,0,2012-10-06 05:15:00
1:35 AM,57.2,57.2,100,30.04,4.0,Calm,Calm,-,N/A,,Clear,0,2012-10-06 05:35:00
1:55 AM,57.2,57.2,100,30.04,4.0,Calm,Calm,-,N/A,,Clear,0,2012-10-06 05:55:00
2:15 AM,57.2,57.2,100,30.03,4.0,Calm,Calm,-,N/A,,Clear,0,2012-10-06 06:15:00
2:35 AM,57.2,57.2,100,30.03,4.0,Calm,Calm,-,N/A,,Clear,0,2012-10-06 06:35:00
3:35 AM,57.2,57.2,100,30.00,4.0,Calm,Calm,-,N/A,,Clear,0,2012-10-06 07:35:00
3:55 AM,57.2,57.2,100,30.00,3.0,Calm,Calm,-,N/A,,Clear,0,2012-10-06 07:55:00
4:15 AM,57.2,57.2,100,29.99,3.0,Calm,Calm,-,N/A,,Clear,0,2012-10-06 08:15:00
4:35 AM,57.2,57.2,100,29.99,3.0,Calm,Calm,-,N/A,,Clear,0,2012-10-06 08:35:00
4:55 AM,57.2,57.2,100,29.99,3.0,Calm,Calm,-,N/A,,Clear,0,2012-10-06 08:55:00
5:15 AM,57.2,57.2,100,29.99,3.0,Calm,Calm,-,N/A,,Clear,0,2012-10-06 09:15:00
5:35 AM,55.4,55.4,100,29.99,2.5,Calm,Calm,-,N/A,,Clear,0,2012-10-06 09:35:00
5:55 AM,55.4,55.4,100,29.99,3.0,Calm,Calm,-,N/A,,Clear,0,2012-10-06 09:55:00
6:15 AM,55.4,55.4,100,29.99,4.0,Calm,Calm,-,N/A,,Clear,0,2012-10-06 10:15:00
6:55 AM,55.4,55.4,100,30.00,3.0,Calm,Calm,-,N/A,,Clear,0,2012-10-06 10:55:00
7:15 AM,55.4,55.4,100,30.00,3.0,Calm,Calm,-,N/A,,Clear,0,2012-10-06 11:15:00
7:35 AM,55.4,55.4,100,30.00,2.0,Calm,Calm,-,N/A,,Clear,0,2012-10-06 11:35:00
8:15 AM,55.4,55.4,100,30.01,1.2,Calm,Calm,-,N/A,,Scattered Clouds,0,2012-10-06 12:15:00
8:35 AM,57.2,57.2,100,30.01,2.0,Calm,Calm,-,N/A,,Clear,0,2012-10-06 12:35:00
8:55 AM,60.8,60.8,100,30.01,4.0,Calm,Calm,-,N/A,,Clear,0,2012-10-06 12:55:00
9:15 AM,64.4,64.4,100,30.01,9.0,SW,3.5,-,N/A,,Clear,220,2012-10-06 13:15:00
9:35 AM,66.2,66.2,100,30.01,10.0,SW,3.5,-,N/A,,Clear,230,2012-10-06 13:35:00
9:55 AM,68.0,68.0,100,30.01,10.0,SW,5.8,-,N/A,,Clear,230,2012-10-06 13:55:00
10:15 AM,69.8,66.2,88,30.00,10.0,Calm,Calm,-,N/A,,Clear,0,2012-10-06 14:15:00
10:35 AM,71.6,66.2,83,30.00,10.0,SW,4.6,-,N/A,,Clear,220,2012-10-06 14:35:00
10:55 AM,73.4,66.2,78,29.99,10.0,SW,5.8,-,N/A,,Clear,230,2012-10-06 14:55:00
11:15 AM,75.2,66.2,73,29.99,10.0,SW,5.8,-,N/A,,Clear,230,2012-10-06 15:15:00
11:35 AM,77.0,64.4,65,29.98,10.0,SSW,4.6,-,N/A,,Clear,210,2012-10-06 15:35:00
11:55 AM,77.0,64.4,65,29.97,10.0,SW,6.9,-,N/A,,Partly Cloudy,230,2012-10-06 15:55:00
12:15 PM,77.0,62.6,61,29.96,10.0,SSW,4.6,-,N/A,,Clear,210,2012-10-06 16:15:00
12:35 PM,80.6,60.8,51,29.96,10.0,SW,4.6,-,N/A,,Clear,220,2012-10-06 16:35:00
12:55 PM,80.6,59.0,48,29.96,10.0,WSW,10.4,-,N/A,,Clear,240,2012-10-06 16:55:00
1:15 PM,80.6,59.0,48,29.96,10.0,WSW,10.4,-,N/A,,Clear,240,2012-10-06 17:15:00
1:35 PM,80.6,59.0,48,29.94,10.0,WSW,10.4,-,N/A,,Clear,240,2012-10-06 17:35:00
1:55 PM,80.6,59.0,48,29.93,10.0,SW,8.1,-,N/A,,Clear,230,2012-10-06 17:55:00
2:15 PM,82.4,59.0,45,29.92,10.0,West,12.7,-,N/A,,Clear,270,2012-10-06 18:15:00
2:35 PM,82.4,59.0,45,29.92,10.0,West,8.1,-,N/A,,Clear,270,2012-10-06 18:35:00
2:55 PM,82.4,59.0,45,29.91,10.0,WNW,8.1,-,N/A,,Clear,290,2012-10-06 18:55:00
3:15 PM,82.4,59.0,45,29.91,10.0,WSW,4.6,-,N/A,,Clear,250,2012-10-06 19:15:00
3:35 PM,82.4,60.8,48,29.91,10.0,West,9.2,-,N/A,,Clear,280,2012-10-06 19:35:00
4:15 PM,82.4,59.0,45,29.90,10.0,Calm,Calm,-,N/A,,Clear,0,2012-10-06 20:15:00
4:35 PM,82.4,59.0,45,29.90,10.0,Calm,Calm,-,N/A,,Clear,0,2012-10-06 20:35:00
4:55 PM,82.4,59.0,45,29.90,10.0,West,3.5,-,N/A,,Clear,280,2012-10-06 20:55:00
5:15 PM,82.4,62.6,51,29.90,10.0,Calm,Calm,-,N/A,,Clear,0,2012-10-06 21:15:00
5:35 PM,77.0,69.8,78,29.90,10.0,Calm,Calm,-,N/A,,Clear,0,2012-10-06 21:35:00
6:15 PM,77.0,73.4,89,29.91,10.0,Calm,Calm,-,N/A,,Partly Cloudy,0,2012-10-06 22:15:00
6:35 PM,75.2,75.2,100,29.91,10.0,Calm,Calm,-,N/A,,Clear,0,2012-10-06 22:35:00
7:15 PM,69.8,69.8,100,29.92,10.0,Calm,Calm,-,N/A,,Clear,0,2012-10-06 23:15:00
7:35 PM,69.8,69.8,100,29.92,10.0,Calm,Calm,-,N/A,,Clear,0,2012-10-06 23:35:00
7:55 PM,68.0,68.0,100,29.93,10.0,Calm,Calm,-,N/A,,Clear,0,2012-10-06 23:55:00
8:15 PM,68.0,68.0,100,29.93,9.0,Calm,Calm,-,N/A,,Clear,0,2012-10-07 00:15:00
8:35 PM,68.0,68.0,100,29.94,8.0,Calm,Calm,-,N/A,,Clear,0,2012-10-07 00:35:00
8:55 PM,66.2,66.2,100,29.93,8.0,Calm,Calm,-,N/A,,Clear,0,2012-10-07 00:55:00
9:15 PM,68.0,68.0,100,29.94,10.0,Calm,Calm,-,N/A,,Partly Cloudy,0,2012-10-07 01:15:00
9:35 PM,68.0,68.0,100,29.94,9.0,Calm,Calm,-,N/A,,Partly Cloudy,0,2012-10-07 01:35:00
9:55 PM,68.0,68.0,100,29.94,8.0,Calm,Calm,-,N/A,,Clear,0,2012-10-07 01:55:00
10:15 PM,66.2,66.2,100,29.95,7.0,North,6.9,-,N/A,,Clear,350,2012-10-07 02:15:00
10:35 PM,66.2,66.2,100,29.96,9.0,Calm,Calm,-,N/A,,Clear,0,2012-10-07 02:35:00
10:55 PM,68.0,68.0,100,29.96,10.0,North,4.6,-,N/A,,Clear,360,2012-10-07 02:55:00
11:15 PM,68.0,68.0,100,29.96,10.0,Calm,Calm,-,N/A,,Clear,0,2012-10-07 03:15:00
11:35 PM,68.0,68.0,100,29.96,10.0,Calm,Calm,-,N/A,,Clear,0,2012-10-07 03:35:00
11:55 PM,66.2,66.2,100,29.97,10.0,Calm,Calm,-,N/A,,Clear,0,2012-10-07 03:55:00